createdAt,value
2019-05-06T03:47:54.081Z,6.30
2019-05-06T03:50:20.529Z,6.50
2019-05-06T03:52:56.119Z,6.20
2019-05-06T03:55:23.290Z,6.10
2019-05-06T03:57:58.772Z,5.70
2019-05-06T04:00:26.765Z,5.70
2019-05-06T04:02:54.819Z,5.80
2019-05-06T04:05:23.788Z,5.80
2019-05-06T04:07:53.157Z,6.10
2019-05-06T04:10:22.874Z,6.00
2019-05-06T04:12:53.632Z,6.00
2019-05-06T04:15:23.007Z,6.00
2019-05-06T04:17:54.308Z,6.00
2019-05-06T04:20:27.067Z,6.00
2019-05-06T04:22:57.534Z,6.00
2019-05-06T04:25:39.230Z,6.00
2019-05-06T04:28:12.918Z,6.00
2019-05-06T04:30:42.923Z,5.90
2019-05-06T04:33:16.887Z,6.00
2019-05-06T04:35:43.040Z,6.00
2019-05-06T04:38:13.645Z,6.00
2019-05-06T04:40:43.676Z,6.20
2019-05-06T04:43:13.409Z,6.40
2019-05-06T04:45:43.239Z,6.80
2019-05-06T04:48:14.308Z,7.30
2019-05-06T04:50:44.414Z,7.80
2019-05-06T04:53:13.674Z,8.00
2019-05-06T04:55:44.117Z,7.60
2019-05-06T04:58:13.582Z,7.80
2019-05-06T05:00:44.521Z,7.70
2019-05-06T05:03:14.057Z,7.40
2019-05-06T05:05:41.273Z,7.70
2019-05-06T05:08:09.262Z,7.70
2019-05-06T05:10:38.899Z,8.00
2019-05-06T05:13:08.628Z,8.10
2019-05-06T05:15:47.092Z,8.40
2019-05-06T05:18:32.966Z,8.20
2019-05-06T05:21:02.412Z,8.40
2019-05-06T05:23:31.898Z,8.30
2019-05-06T05:26:00.085Z,8.10
2019-05-06T05:28:28.168Z,8.20
2019-05-06T05:30:56.177Z,8.20
2019-05-06T05:33:24.219Z,8.10
2019-05-06T05:35:52.662Z,7.60
2019-05-06T05:38:22.730Z,7.60
2019-05-06T05:40:52.368Z,7.60
2019-05-06T05:43:22.817Z,7.50
2019-05-06T05:45:52.349Z,7.80
2019-05-06T05:48:23.363Z,8.00
2019-05-06T05:50:52.491Z,7.80
2019-05-06T05:53:22.504Z,7.80
2019-05-06T05:55:52.624Z,7.90
2019-05-06T05:58:20.095Z,8.20
2019-05-06T06:01:07.413Z,8.50
2019-05-06T06:03:35.395Z,8.50
2019-05-06T06:06:03.732Z,8.80
2019-05-06T06:08:32.222Z,8.90
2019-05-06T06:11:04.137Z,8.80
2019-05-06T06:13:32.054Z,8.70
2019-05-06T06:16:02.840Z,8.80
2019-05-06T06:18:49.347Z,8.90
2019-05-06T06:21:28.347Z,8.90
2019-05-06T06:24:02.735Z,8.90
2019-05-06T06:26:32.450Z,9.10
2019-05-06T06:29:00.373Z,9.20
2019-05-06T06:31:35.865Z,9.50
2019-05-06T06:34:08.184Z,9.60
2019-05-06T06:36:43.305Z,9.60
2019-05-06T06:39:15.869Z,9.60
2019-05-06T06:41:43.855Z,9.70
2019-05-06T06:44:16.242Z,9.80
2019-05-06T06:46:44.764Z,9.90
2019-05-06T06:49:12.880Z,9.90
2019-05-06T06:51:42.475Z,9.70
2019-05-06T06:54:12.356Z,9.50
2019-05-06T06:57:05.087Z,9.30
2019-05-06T06:59:31.897Z,9.60
2019-05-06T07:02:18.312Z,10.00
2019-05-06T07:04:52.594Z,9.60
2019-05-06T07:07:22.803Z,9.90
2019-05-06T07:09:52.630Z,10.10
2019-05-06T07:12:23.237Z,10.00
2019-05-06T07:14:52.378Z,10.20
2019-05-06T07:17:22.708Z,10.70
2019-05-06T07:19:57.493Z,10.80
2019-05-06T07:22:27.129Z,11.20
2019-05-06T07:24:55.125Z,10.90
2019-05-06T07:27:24.767Z,11.30
2019-05-06T07:29:52.770Z,11.50
2019-05-06T07:32:23.220Z,11.60
2019-05-06T07:34:53.037Z,11.70
2019-05-06T07:37:22.115Z,11.60
2019-05-06T07:39:52.680Z,11.80
2019-05-06T07:42:22.697Z,11.90
2019-05-06T07:44:58.274Z,11.80
2019-05-06T07:50:13.109Z,12.10
2019-05-06T07:52:42.669Z,12.20
2019-05-06T07:55:12.016Z,12.30
2019-05-06T07:57:42.302Z,11.90
2019-05-06T08:00:12.409Z,12.00
2019-05-06T08:02:39.650Z,12.30
2019-05-06T08:05:07.790Z,11.90
2019-05-06T08:07:35.875Z,12.20
2019-05-06T08:10:05.323Z,12.40
2019-05-06T08:12:33.330Z,12.40
2019-05-06T08:15:04.919Z,12.30
2019-05-06T08:17:33.182Z,12.50
2019-05-06T08:20:22.205Z,12.60
2019-05-06T08:23:04.228Z,12.70
2019-05-06T08:25:39.352Z,12.90
2019-05-06T08:28:07.349Z,12.80
2019-05-06T08:30:35.443Z,12.80
2019-05-06T08:33:03.736Z,12.70
2019-05-06T08:35:33.158Z,12.80
2019-05-06T08:38:02.375Z,12.70
2019-05-06T08:40:32.158Z,12.70
2019-05-06T08:43:02.213Z,12.80
2019-05-06T08:45:32.370Z,12.90
2019-05-06T08:47:59.954Z,13.00
2019-05-06T08:50:35.477Z,13.10
2019-05-06T08:53:14.075Z,13.10
2019-05-06T08:55:46.665Z,12.80
2019-05-06T08:58:14.704Z,12.90
2019-05-06T09:00:50.572Z,13.00
2019-05-06T09:03:18.797Z,13.00
2019-05-06T09:05:55.689Z,13.00
2019-05-06T09:08:24.407Z,12.80
2019-05-06T09:10:52.730Z,12.70
2019-05-06T09:13:23.017Z,12.10
2019-05-06T09:15:52.483Z,12.20
2019-05-06T09:18:20.204Z,12.30
2019-05-06T09:20:48.185Z,12.50
2019-05-06T09:23:16.227Z,12.90
2019-05-06T09:25:44.200Z,13.10
2019-05-06T09:28:25.916Z,12.90
2019-05-06T09:30:55.537Z,12.90
2019-05-06T09:33:25.174Z,12.80
2019-05-06T09:35:53.157Z,12.30
2019-05-06T09:38:22.819Z,12.50
2019-05-06T09:40:52.517Z,12.70
2019-05-06T09:43:22.262Z,12.20
2019-05-06T09:45:52.822Z,12.00
2019-05-06T09:48:33.026Z,11.60
2019-05-06T09:51:02.942Z,11.50
2019-05-06T09:53:37.713Z,11.50
2019-05-06T09:56:16.106Z,11.20
2019-05-06T09:58:44.987Z,11.30
2019-05-06T10:01:13.626Z,11.30
2019-05-06T10:03:42.612Z,11.10
2019-05-06T10:06:13.027Z,10.90
2019-05-06T10:08:40.602Z,10.60
2019-05-06T10:11:08.596Z,10.30
2019-05-06T10:13:36.659Z,9.90
2019-05-06T10:16:04.773Z,9.70
2019-05-06T10:18:32.941Z,9.60
2019-05-06T10:21:00.934Z,9.20
2019-05-06T10:23:28.923Z,9.40
2019-05-06T10:25:56.897Z,9.60
2019-05-06T10:28:38.743Z,9.40
2019-05-06T10:31:08.363Z,9.30
2019-05-06T10:33:38.018Z,9.10
2019-05-06T10:36:06.070Z,9.00
2019-05-06T10:38:35.677Z,9.10
2019-05-06T10:41:07.737Z,9.40
2019-05-06T10:43:39.175Z,9.90
2019-05-06T10:46:07.185Z,10.50
2019-05-06T10:48:35.188Z,10.80
2019-05-06T10:51:04.818Z,11.30
2019-05-06T10:53:33.038Z,11.60
2019-05-06T10:56:05.221Z,11.80
2019-05-06T10:58:33.214Z,12.00
2019-05-06T11:01:03.648Z,12.10
2019-05-06T11:03:33.035Z,12.30
2019-05-06T11:06:02.585Z,12.40
2019-05-06T11:08:32.469Z,12.60
2019-05-06T11:11:14.494Z,12.70
2019-05-06T11:13:32.143Z,12.80
2019-05-06T11:15:59.882Z,13.00
2019-05-06T11:18:27.875Z,13.20
2019-05-06T11:20:56.189Z,13.20
2019-05-06T11:23:24.540Z,13.30
2019-05-06T11:25:52.826Z,13.30
2019-05-06T11:28:38.839Z,13.30
2019-05-06T11:31:09.382Z,13.20
2019-05-06T11:33:55.857Z,13.40
2019-05-06T11:36:25.494Z,13.40
2019-05-06T11:38:53.591Z,12.80
2019-05-06T11:41:23.349Z,12.50
2019-05-06T11:43:52.198Z,12.80
2019-05-06T11:46:22.721Z,13.20
2019-05-06T11:48:52.117Z,12.80
2019-05-06T11:51:23.073Z,12.60
2019-05-06T11:53:53.836Z,12.30
2019-05-06T11:56:22.913Z,12.20
2019-05-06T11:58:54.992Z,12.40
2019-05-06T12:01:27.589Z,12.10
2019-05-06T12:03:55.672Z,11.90
2019-05-06T12:06:23.712Z,12.00
2019-05-06T12:08:52.441Z,12.00
2019-05-06T12:11:23.387Z,11.80
2019-05-06T12:13:53.122Z,11.80
2019-05-06T12:16:25.574Z,11.70
2019-05-06T12:18:50.144Z,12.00
2019-05-06T12:21:19.342Z,11.90
2019-05-06T12:23:47.716Z,12.00
2019-05-06T12:26:15.724Z,12.10
2019-05-06T12:28:43.801Z,12.10
2019-05-06T12:31:12.670Z,12.00
2019-05-06T12:33:42.781Z,11.70
2019-05-06T12:36:13.374Z,11.50
2019-05-06T12:38:59.323Z,11.20
2019-05-06T12:41:27.493Z,11.40
2019-05-06T12:43:55.854Z,11.60
2019-05-06T12:46:25.521Z,11.70
2019-05-06T12:48:53.566Z,11.70
2019-05-06T12:51:22.702Z,11.90
2019-05-06T12:53:52.827Z,12.30
2019-05-06T12:56:20.527Z,12.40
2019-05-06T12:58:48.528Z,12.50
2019-05-06T13:01:16.694Z,12.90
2019-05-06T13:03:44.682Z,13.10
2019-05-06T13:06:13.079Z,13.00
2019-05-06T13:08:56.661Z,12.80
2019-05-06T13:11:12.963Z,12.50
2019-05-06T13:13:56.139Z,12.50
2019-05-06T13:16:12.543Z,12.60
2019-05-06T13:18:40.417Z,12.60
2019-05-06T13:21:08.473Z,12.70
2019-05-06T13:23:41.069Z,12.90
2019-05-06T13:26:09.221Z,12.60
2019-05-06T13:28:38.836Z,12.30
2019-05-06T13:31:17.215Z,12.40
2019-05-06T13:33:38.486Z,12.30
2019-05-06T13:36:06.638Z,12.50
2019-05-06T13:38:34.628Z,12.40
2019-05-06T13:41:03.263Z,12.20
2019-05-06T13:43:39.095Z,12.60
2019-05-06T13:46:09.784Z,12.90
2019-05-06T13:48:39.483Z,12.90
2019-05-06T13:51:14.974Z,12.80
2019-05-06T13:53:46.083Z,12.80
2019-05-06T13:56:12.773Z,12.40
2019-05-06T13:58:42.951Z,12.40
2019-05-06T14:01:12.201Z,12.20
2019-05-06T14:03:40.224Z,12.30
2019-05-06T14:06:08.217Z,12.20
2019-05-06T14:08:36.286Z,12.20
2019-05-06T14:11:04.355Z,12.60
2019-05-06T14:13:32.831Z,12.50
2019-05-06T14:16:03.757Z,12.10
2019-05-06T14:18:33.050Z,11.90
2019-05-06T14:21:02.710Z,12.20
2019-05-06T14:23:30.112Z,12.10
2019-05-06T14:26:17.647Z,11.80
2019-05-06T14:28:50.004Z,11.80
2019-05-06T14:31:19.627Z,11.90
2019-05-06T14:33:47.630Z,12.00
2019-05-06T14:36:15.642Z,12.50
2019-05-06T14:38:43.633Z,12.80
2019-05-06T14:41:13.364Z,12.80
2019-05-06T14:43:42.870Z,13.00
2019-05-06T14:46:11.164Z,13.00
2019-05-06T14:48:39.273Z,13.00
2019-05-06T14:51:07.338Z,12.40
2019-05-06T14:53:35.400Z,12.60
2019-05-06T14:56:07.820Z,12.70
2019-05-06T14:58:35.851Z,13.10
2019-05-06T15:01:04.408Z,13.30
2019-05-06T15:03:32.686Z,13.00
2019-05-06T15:06:02.618Z,13.00
2019-05-06T15:08:32.205Z,13.10
2019-05-06T15:11:02.911Z,13.00
2019-05-06T15:13:32.163Z,13.00
2019-05-06T15:16:03.230Z,13.40
2019-05-06T15:18:31.982Z,13.60
2019-05-06T15:21:24.749Z,13.80
2019-05-06T15:23:28.966Z,13.80
2019-05-06T15:25:56.950Z,13.80
2019-05-06T15:28:24.949Z,14.30
2019-05-06T15:31:03.145Z,14.30
2019-05-06T15:33:33.265Z,14.10
2019-05-06T15:36:03.167Z,14.40
2019-05-06T15:38:31.651Z,14.50
2019-05-06T15:40:59.968Z,14.70
2019-05-06T15:43:28.068Z,14.50
2019-05-06T15:45:56.112Z,14.20
2019-05-06T15:48:24.121Z,14.10
2019-05-06T15:50:53.328Z,14.50
2019-05-06T15:53:22.445Z,14.10
2019-05-06T15:55:50.647Z,14.00
2019-05-06T15:58:18.934Z,13.90
2019-05-06T16:00:46.993Z,13.90
2019-05-06T16:03:15.033Z,14.00
2019-05-06T16:05:43.685Z,13.60
2019-05-06T16:08:11.930Z,13.50
2019-05-06T16:10:51.771Z,13.70
2019-05-06T16:13:09.694Z,13.50
2019-05-06T16:15:37.722Z,13.70
2019-05-06T16:18:05.749Z,14.00
2019-05-06T16:20:33.818Z,14.00
2019-05-06T16:23:03.495Z,14.20
2019-05-06T16:25:31.545Z,14.10
2019-05-06T16:27:59.624Z,13.80
2019-05-06T16:30:27.694Z,13.80
2019-05-06T16:32:55.838Z,13.80
2019-05-06T16:35:23.962Z,13.80
2019-05-06T16:37:52.045Z,14.00
2019-05-06T16:40:22.762Z,13.90
2019-05-06T16:42:54.370Z,14.00
2019-05-06T16:45:23.246Z,13.70
2019-05-06T16:47:52.424Z,13.90
2019-05-06T16:50:22.576Z,14.00
2019-05-06T16:52:52.696Z,13.80
2019-05-06T16:55:24.265Z,13.70
2019-05-06T16:58:03.277Z,13.70
2019-05-06T17:00:33.720Z,13.90
2019-05-06T17:03:15.168Z,13.60
2019-05-06T17:05:44.821Z,13.60
2019-05-06T17:08:12.855Z,13.80
2019-05-06T17:10:43.101Z,13.70
2019-05-06T17:13:12.507Z,13.70
2019-05-06T17:15:40.469Z,13.90
2019-05-06T17:18:08.639Z,14.00
2019-05-06T17:20:37.131Z,14.30
2019-05-06T17:23:05.614Z,14.30
2019-05-06T17:25:33.990Z,14.00
2019-05-06T17:28:03.886Z,13.60
2019-05-06T17:30:43.046Z,13.70
2019-05-06T17:33:29.476Z,13.90
2019-05-06T17:35:57.965Z,14.00
2019-05-06T17:38:44.722Z,13.60
2019-05-06T17:41:12.817Z,13.80
2019-05-06T17:43:43.835Z,13.80
2019-05-06T17:46:12.834Z,13.50
2019-05-06T17:48:48.929Z,13.80
2019-05-06T17:51:18.670Z,13.90
2019-05-06T17:53:54.546Z,13.90
2019-05-06T17:56:22.636Z,13.90
2019-05-06T17:58:52.959Z,13.90
2019-05-06T18:01:32.655Z,14.10
2019-05-06T18:04:02.214Z,13.90
2019-05-06T18:06:33.035Z,14.00
2019-05-06T18:09:02.561Z,14.00
2019-05-06T18:11:33.238Z,13.50
2019-05-06T18:14:03.789Z,13.70
2019-05-06T18:16:33.578Z,13.70
2019-05-06T18:19:03.156Z,13.70
2019-05-06T18:21:31.552Z,13.40
2019-05-06T18:23:59.600Z,13.30
2019-05-06T18:26:27.660Z,13.60
2019-05-06T18:28:58.360Z,13.30
2019-05-06T18:31:25.828Z,13.10
2019-05-06T18:33:57.363Z,13.20
2019-05-06T18:36:29.004Z,13.10
2019-05-06T18:38:57.386Z,12.90
2019-05-06T18:41:37.074Z,12.70
2019-05-06T18:44:24.121Z,12.60
2019-05-06T18:46:54.977Z,13.00
2019-05-06T18:49:25.887Z,13.10
2019-05-06T18:52:07.093Z,12.80
2019-05-06T18:54:37.397Z,12.60
2019-05-06T18:57:07.938Z,12.40
2019-05-06T18:59:38.719Z,12.10
2019-05-06T19:02:07.938Z,12.40
2019-05-06T19:04:44.817Z,12.30
2019-05-06T19:07:17.052Z,12.20
2019-05-06T19:09:48.910Z,12.30
2019-05-06T19:12:34.501Z,12.10
2019-05-06T19:15:03.286Z,12.20
2019-05-06T19:17:52.652Z,12.30
2019-05-06T19:20:27.420Z,12.20
2019-05-06T19:23:18.524Z,12.60
2019-05-06T19:26:12.311Z,12.70
2019-05-06T19:28:44.663Z,12.70
2019-05-06T19:31:14.524Z,12.80
2019-05-06T19:33:45.089Z,12.50
2019-05-06T19:36:20.379Z,12.20
2019-05-06T19:38:55.806Z,12.00
2019-05-06T19:41:30.020Z,12.10
2019-05-06T19:44:01.947Z,12.40
2019-05-06T19:46:32.697Z,12.10
2019-05-06T19:51:55.620Z,12.00
2019-05-06T19:54:24.071Z,12.00
2019-05-06T19:56:52.724Z,11.90
2019-05-06T19:59:20.962Z,11.90
2019-05-06T20:01:49.159Z,12.20
2019-05-06T20:04:18.618Z,12.30
2019-05-06T20:06:55.066Z,12.70
2019-05-06T20:09:33.316Z,12.90
2019-05-06T20:12:03.212Z,12.70
2019-05-06T20:14:31.375Z,12.20
2019-05-06T20:16:59.554Z,11.80
2019-05-06T20:19:31.042Z,11.50
2019-05-06T20:22:02.035Z,11.40
2019-05-06T20:24:33.291Z,11.30
2019-05-06T20:27:02.352Z,11.30
2019-05-06T20:29:32.982Z,11.30
2019-05-06T20:32:20.055Z,11.30
2019-05-06T20:34:50.114Z,11.50
2019-05-06T20:37:17.935Z,11.60
2019-05-06T20:39:45.949Z,11.40
2019-05-06T20:42:15.693Z,11.30
2019-05-06T20:44:43.762Z,11.20
2019-05-06T20:47:13.052Z,11.20
2019-05-06T20:49:43.156Z,11.20
2019-05-06T20:52:12.226Z,11.10
2019-05-06T20:54:42.483Z,11.30
2019-05-06T20:57:12.320Z,11.30
2019-05-06T20:59:42.460Z,11.20
2019-05-06T21:02:12.421Z,11.20
2019-05-06T21:04:43.159Z,11.10
2019-05-06T21:07:12.348Z,11.10
2019-05-06T21:09:42.982Z,11.20
2019-05-06T21:12:10.257Z,11.10
2019-05-06T21:14:38.245Z,11.20
2019-05-06T21:17:06.253Z,11.10
2019-05-06T21:19:34.260Z,11.00
2019-05-06T21:22:02.425Z,10.90
2019-05-06T21:24:32.543Z,11.00
2019-05-06T21:27:02.560Z,11.00
2019-05-06T21:29:29.920Z,11.00
2019-05-06T21:31:57.905Z,11.30
2019-05-06T21:34:25.955Z,11.10
2019-05-06T21:36:53.996Z,11.10
2019-05-06T21:39:22.491Z,11.20
2019-05-06T21:41:52.177Z,11.30
2019-05-06T21:44:22.627Z,11.10
2019-05-06T21:46:50.066Z,11.00
2019-05-06T21:49:18.104Z,11.00
2019-05-06T21:51:46.099Z,11.00
2019-05-06T21:54:14.082Z,11.00
2019-05-06T21:56:42.562Z,10.80
2019-05-06T21:59:12.713Z,10.70
2019-05-06T22:01:42.747Z,10.90
2019-05-06T22:04:12.554Z,11.00
2019-05-06T22:06:42.751Z,10.80
2019-05-06T22:09:11.376Z,10.80
2019-05-06T22:11:39.409Z,11.20
2019-05-06T22:14:07.437Z,11.40
2019-05-06T22:16:35.433Z,11.60
2019-05-06T22:19:03.616Z,11.30
2019-05-06T22:21:32.190Z,11.50
2019-05-06T22:24:04.220Z,11.40
2019-05-06T22:26:32.512Z,11.70
2019-05-06T22:29:02.072Z,12.00
2019-05-06T22:31:30.352Z,12.10
2019-05-06T22:33:58.396Z,11.90
2019-05-06T22:36:26.566Z,11.60
2019-05-06T22:38:54.549Z,11.50
2019-05-06T22:41:24.864Z,11.00
2019-05-06T22:43:53.187Z,10.80
2019-05-06T22:46:23.479Z,10.70
2019-05-06T22:48:54.079Z,10.70
2019-05-06T22:51:22.382Z,10.50
2019-05-06T22:53:50.448Z,10.40
2019-05-06T22:56:18.445Z,10.30
2019-05-06T22:58:46.479Z,10.30
